Time;durP1;ratioP1;P1;durP2;ratioP2;P2;SDS_P1;SDS_P2;PMS_P1;PMS_P2;Temp;Humidity;BMP_temperature;BMP_pressure;BME280_temperature;BME280_humidity;BME280_pressure;Samples;Min_cycle;Max_cycle;Signal;HPM_P1;HPM_P2
2022/01/13 00:00:07;;;;;;;20.27;17.48;;;5.60;59.80;;;-142.21;100.00;112049.66;4974683;28;20209;-78
2022/01/13 00:02:36;;;;;;;20.40;16.83;;;5.60;60.00;;;-142.21;100.00;112049.66;4974263;28;20196;-79
2022/01/13 00:05:05;;;;;;;19.65;16.55;;;5.60;59.90;;;-142.21;100.00;112049.66;4986755;28;20315;-78
2022/01/13 00:07:33;;;;;;;19.50;16.75;;;5.60;59.70;;;-142.21;100.00;112049.66;4994311;28;20637;-78
2022/01/13 00:10:01;;;;;;;19.52;16.40;;;5.60;59.60;;;-142.21;100.00;112049.66;4976970;28;20211;-78
2022/01/13 00:12:33;;;;;;;18.00;15.48;;;5.60;59.40;;;-142.21;100.00;112049.66;4994365;28;20213;-79
2022/01/13 00:15:20;;;;;;;19.83;16.25;;;5.60;59.50;;;-142.21;100.00;112049.66;4994007;28;20279;-78
2022/01/13 00:18:00;;;;;;;19.02;16.17;;;5.60;59.50;;;-142.21;100.00;112049.66;4994240;28;20184;-78
2022/01/13 00:20:59;;;;;;;20.60;17.23;;;5.50;59.50;;;-142.21;100.00;112049.66;4993847;28;20220;-80
2022/01/13 00:23:44;;;;;;;19.75;16.92;;;5.40;59.60;;;-142.21;100.00;112049.66;4990016;28;20227;-79
2022/01/13 00:26:19;;;;;;;19.10;17.00;;;5.50;59.60;;;-142.21;100.00;112049.66;4974419;28;20213;-78
2022/01/13 00:28:49;;;;;;;19.63;16.83;;;5.50;59.60;;;-142.21;100.00;112049.66;4974452;28;20263;-79
2022/01/13 00:31:24;;;;;;;20.08;16.20;;;5.40;59.40;;;-142.21;100.00;112049.66;4979900;28;20204;-79
2022/01/13 00:33:54;;;;;;;20.95;17.40;;;5.40;59.50;;;-142.21;100.00;112049.66;4993887;28;20180;-79
2022/01/13 00:36:22;;;;;;;20.13;16.55;;;5.40;59.40;;;-142.21;100.00;112049.66;4993330;28;20223;-78
2022/01/13 00:38:49;;;;;;;18.50;15.85;;;5.40;59.50;;;-142.21;100.00;112049.66;4994015;28;20602;-79
2022/01/13 00:41:17;;;;;;;19.83;16.55;;;5.40;59.60;;;-142.21;100.00;112049.66;4993614;28;20290;-78
2022/01/13 00:43:46;;;;;;;19.90;16.88;;;5.50;59.20;;;-142.21;100.00;112049.66;4976029;28;20189;-78
2022/01/13 00:46:21;;;;;;;19.77;17.30;;;5.30;58.80;;;-142.21;100.00;112049.66;4993608;28;20235;-78
2022/01/13 00:48:51;;;;;;;18.67;15.55;;;5.30;58.80;;;-142.21;100.00;112049.66;4994144;28;20195;-78
2022/01/13 00:51:18;;;;;;;19.23;16.77;;;5.30;59.20;;;-142.21;100.00;112049.66;4993801;28;20577;-79
2022/01/13 00:53:45;;;;;;;19.10;16.20;;;5.20;59.00;;;-142.21;100.00;112049.66;4993210;28;20572;-78
2022/01/13 00:56:13;;;;;;;17.10;15.15;;;5.20;59.50;;;-142.21;100.00;112049.66;4993591;28;20236;-78
2022/01/13 00:58:40;;;;;;;18.52;16.52;;;5.30;59.70;;;-142.21;100.00;112049.66;4993081;28;20208;-77
2022/01/13 01:01:08;;;;;;;20.17;17.10;;;5.30;59.50;;;-142.21;100.00;112049.66;4993465;28;20217;-79
2022/01/13 01:03:37;;;;;;;18.70;16.15;;;5.20;59.80;;;-142.21;100.00;112049.66;4993307;28;20299;-79
2022/01/13 01:06:06;;;;;;;19.42;17.20;;;5.30;60.10;;;-142.21;100.00;112049.66;4993427;28;20346;-78
2022/01/13 01:08:34;;;;;;;21.23;16.75;;;5.40;60.20;;;-142.21;100.00;112049.66;4992465;28;20274;-78
2022/01/13 01:11:03;;;;;;;19.63;16.88;;;5.40;60.00;;;-142.21;100.00;112049.66;4992984;28;20274;-78
2022/01/13 01:13:33;;;;;;;20.95;17.45;;;5.40;60.90;;;-142.21;100.00;112049.66;4993194;28;20223;-77
2022/01/13 01:16:05;;;;;;;20.48;17.27;;;5.50;60.80;;;-142.21;100.00;112049.66;4992888;28;20283;-80
2022/01/13 01:18:40;;;;;;;19.85;16.52;;;5.50;60.40;;;-142.21;100.00;112049.66;4993744;28;20199;-78
2022/01/13 01:21:34;;;;;;;22.20;18.42;;;5.40;60.10;;;-142.21;100.00;112049.66;4993478;28;20211;-78
2022/01/13 01:24:31;;;;;;;18.75;16.33;;;5.30;60.20;;;-142.21;100.00;112049.66;4992562;28;20215;-78
2022/01/13 01:27:03;;;;;;;18.00;15.13;;;5.40;60.30;;;-142.21;100.00;112049.66;4991110;28;20323;-78
2022/01/13 01:29:36;;;;;;;18.65;15.88;;;5.30;59.90;;;-142.21;100.00;112049.66;4975744;28;20694;-78
2022/01/13 01:32:09;;;;;;;19.20;16.48;;;5.30;59.90;;;-142.21;100.00;112049.66;4992554;28;20192;-78
2022/01/13 01:34:53;;;;;;;21.30;16.35;;;5.30;60.00;;;-142.21;100.00;112049.66;4976666;28;20200;-77
2022/01/13 01:37:26;;;;;;;19.35;16.55;;;5.40;59.80;;;-142.21;100.00;112049.66;4993315;28;20254;-78
2022/01/13 01:39:55;;;;;;;18.27;16.30;;;5.20;59.70;;;-142.21;100.00;112049.66;4992365;28;20196;-78
2022/01/13 01:42:24;;;;;;;22.52;17.75;;;5.20;59.80;;;-142.21;100.00;112049.66;4992750;28;20319;-77
2022/01/13 01:44:55;;;;;;;18.58;16.23;;;5.20;59.50;;;-142.21;100.00;112049.66;4993435;28;20295;-78
2022/01/13 01:47:26;;;;;;;18.52;16.52;;;5.20;60.00;;;-142.21;100.00;112049.66;4976320;28;20207;-78
2022/01/13 01:49:59;;;;;;;19.60;16.73;;;5.20;60.20;;;-142.21;100.00;112049.66;4992686;28;20673;-78
2022/01/13 01:52:29;;;;;;;19.95;16.63;;;5.20;60.20;;;-142.21;100.00;112049.66;4993036;28;20227;-79
2022/01/13 01:54:56;;;;;;;20.98;17.40;;;5.20;60.30;;;-142.21;100.00;112049.66;4993029;28;20219;-78
2022/01/13 01:57:25;;;;;;;19.33;16.70;;;5.10;60.50;;;-142.21;100.00;112049.66;4995761;28;20290;-78
2022/01/13 01:59:53;;;;;;;19.52;16.23;;;5.10;60.90;;;-142.21;100.00;112049.66;4996921;28;20204;-78
2022/01/13 02:02:21;;;;;;;20.75;17.48;;;5.10;60.80;;;-142.21;100.00;112049.66;4996515;28;20214;-78
2022/01/13 02:04:48;;;;;;;21.23;17.42;;;5.10;60.70;;;-142.21;100.00;112049.66;4996995;28;20625;-77
2022/01/13 02:07:15;;;;;;;21.67;16.17;;;5.00;60.60;;;-142.21;100.00;112049.66;4996080;28;20270;-78
2022/01/13 02:09:49;;;;;;;22.45;17.40;;;4.90;60.60;;;-142.21;100.00;112049.66;4996462;28;20708;-78
2022/01/13 02:12:28;;;;;;;21.75;17.27;;;5.00;61.00;;;-142.21;100.00;112049.66;4996184;28;20199;-76
2022/01/13 02:14:59;;;;;;;20.50;17.05;;;5.00;61.20;;;-142.21;100.00;112049.66;4996975;28;20518;-78
2022/01/13 02:17:29;;;;;;;19.88;17.45;;;4.90;61.10;;;-142.21;100.00;112049.66;4996103;28;20198;-79
2022/01/13 02:19:58;;;;;;;23.75;18.73;;;5.00;61.40;;;-142.21;100.00;112049.66;4997464;28;20290;-77
2022/01/13 02:22:26;;;;;;;22.38;18.15;;;4.90;61.50;;;-142.21;100.00;112049.66;4996694;28;20537;-75
2022/01/13 02:24:54;;;;;;;19.88;17.63;;;4.90;61.40;;;-142.21;100.00;112049.66;4983268;28;20200;-74
2022/01/13 02:27:21;;;;;;;20.98;18.13;;;4.90;61.10;;;-142.21;100.00;112049.66;5000895;28;20223;-78
2022/01/13 02:29:49;;;;;;;21.20;18.67;;;4.80;61.10;;;-142.21;100.00;112049.66;5020658;28;20194;-76
2022/01/13 02:32:17;;;;;;;21.25;18.05;;;4.80;61.20;;;-142.21;100.00;112049.66;4999643;28;20288;-78
2022/01/13 02:34:44;;;;;;;21.20;16.33;;;4.80;61.20;;;-142.21;100.00;112049.66;4996144;28;20626;-78
2022/01/13 02:37:12;;;;;;;21.40;18.80;;;4.80;61.10;;;-142.21;100.00;112049.66;4996094;28;20543;-78
2022/01/13 02:39:41;;;;;;;22.05;17.98;;;4.70;61.00;;;-142.21;100.00;112049.66;4996003;28;20294;-78
2022/01/13 02:42:14;;;;;;;22.73;18.15;;;4.70;60.80;;;-142.21;100.00;112049.66;4996127;28;20244;-78
2022/01/13 02:44:49;;;;;;;26.83;18.27;;;4.60;61.00;;;-142.21;100.00;112049.66;4995875;28;20636;-78
2022/01/13 02:47:37;;;;;;;21.40;18.83;;;4.60;61.30;;;-142.21;100.00;112049.66;4996273;28;20216;-78
2022/01/13 02:50:05;;;;;;;20.65;16.65;;;4.60;61.30;;;-142.21;100.00;112049.66;4996097;28;20227;-78
2022/01/13 02:52:34;;;;;;;21.02;17.48;;;4.50;61.10;;;-142.21;100.00;112049.66;4977339;28;20612;-78
2022/01/13 02:55:06;;;;;;;20.67;17.60;;;4.60;61.30;;;-142.21;100.00;112049.66;4996137;28;20302;-78
2022/01/13 02:57:33;;;;;;;21.55;17.65;;;4.50;61.50;;;-142.21;100.00;112049.66;4996144;28;20196;-78
2022/01/13 03:00:00;;;;;;;21.48;17.70;;;4.50;61.50;;;-142.21;100.00;112049.66;4995662;28;20207;-79
2022/01/13 03:02:31;;;;;;;20.90;17.55;;;4.40;61.40;;;-142.21;100.00;112049.66;4995613;28;20196;-78
2022/01/13 03:04:58;;;;;;;19.88;17.05;;;4.30;61.60;;;-142.21;100.00;112049.66;4995422;28;20193;-78
2022/01/13 03:07:26;;;;;;;21.05;18.05;;;4.40;61.70;;;-142.21;100.00;112049.66;4994601;28;20708;-77
2022/01/13 03:09:54;;;;;;;21.90;17.98;;;4.30;61.70;;;-142.21;100.00;112049.66;4995042;28;20208;-78
2022/01/13 03:12:24;;;;;;;19.70;17.50;;;4.30;62.00;;;-142.21;100.00;112049.66;4995840;28;20239;-78
2022/01/13 03:14:52;;;;;;;20.20;18.05;;;4.20;62.20;;;-142.21;100.00;112049.66;4995602;28;20607;-78
2022/01/13 03:17:19;;;;;;;21.85;18.52;;;4.30;62.30;;;-142.21;100.00;112049.66;4995882;28;20570;-78
2022/01/13 03:19:46;;;;;;;23.20;19.00;;;4.30;62.40;;;-142.21;100.00;112049.66;4995375;28;20336;-78
2022/01/13 03:22:14;;;;;;;20.58;17.38;;;4.30;62.50;;;-142.21;100.00;112049.66;4995171;28;20291;-78
2022/01/13 03:24:41;;;;;;;21.50;17.73;;;4.30;62.40;;;-142.21;100.00;112049.66;4995679;28;20279;-78
2022/01/13 03:27:17;;;;;;;20.15;17.13;;;4.30;62.30;;;-142.21;100.00;112049.66;4994737;28;20326;-79
2022/01/13 03:29:46;;;;;;;21.63;17.67;;;4.20;62.20;;;-142.21;100.00;112049.66;4979244;28;20187;-78
2022/01/13 03:32:13;;;;;;;20.25;17.23;;;4.20;62.30;;;-142.21;100.00;112049.66;4994512;28;20310;-78
2022/01/13 03:34:41;;;;;;;20.95;17.85;;;4.20;61.90;;;-142.21;100.00;112049.66;4995014;28;20233;-79
2022/01/13 03:37:09;;;;;;;20.85;17.02;;;4.20;62.00;;;-142.21;100.00;112049.66;4994519;28;20204;-78
2022/01/13 03:39:36;;;;;;;19.98;17.08;;;4.20;62.20;;;-142.21;100.00;112049.66;4995008;28;20244;-78
2022/01/13 03:42:04;;;;;;;20.60;17.50;;;4.20;62.90;;;-142.21;100.00;112049.66;4994523;28;20327;-78
2022/01/13 03:44:31;;;;;;;20.30;16.60;;;4.20;62.20;;;-142.21;100.00;112049.66;4995124;28;20235;-78
2022/01/13 03:47:04;;;;;;;20.40;16.92;;;4.20;62.30;;;-142.21;100.00;112049.66;4994741;28;20234;-78
2022/01/13 03:49:33;;;;;;;19.52;16.85;;;4.10;62.50;;;-142.21;100.00;112049.66;4994850;28;20208;-78
2022/01/13 03:53:35;;;;;;;20.67;17.35;;;4.10;62.50;;;-142.21;100.00;112049.66;4994703;28;20567;-79
2022/01/13 03:57:14;;;;;;;23.50;18.60;;;4.00;62.90;;;-142.21;100.00;112049.66;4974785;28;20207;-79
2022/01/13 04:00:53;;;;;;;20.90;16.95;;;4.00;63.00;;;-142.21;100.00;112049.66;4994668;28;20287;-78
2022/01/13 04:03:21;;;;;;;22.58;18.77;;;3.90;63.00;;;-142.21;100.00;112049.66;4974910;28;20203;-77
2022/01/13 04:06:08;;;;;;;20.92;16.75;;;3.90;62.70;;;-142.21;100.00;112049.66;4974135;28;20305;-78
2022/01/13 04:08:36;;;;;;;21.17;18.42;;;3.90;62.90;;;-142.21;100.00;112049.66;4974406;28;20320;-80
2022/01/13 04:11:18;;;;;;;21.88;18.52;;;3.90;62.60;;;-142.21;100.00;112049.66;4987375;28;20207;-80
2022/01/13 04:13:50;;;;;;;24.73;19.83;;;4.00;63.10;;;-142.21;100.00;112049.66;4991896;28;20299;-78
2022/01/13 04:16:21;;;;;;;22.42;18.10;;;3.90;62.80;;;-142.21;100.00;112049.66;4994812;28;20275;-78
2022/01/13 04:18:52;;;;;;;22.52;17.70;;;3.80;62.90;;;-142.21;100.00;112049.66;4994165;28;20193;-77
2022/01/13 04:21:20;;;;;;;21.55;16.77;;;3.90;63.30;;;-142.21;100.00;112049.66;4994417;28;20203;-79
2022/01/13 04:23:47;;;;;;;22.05;18.45;;;3.90;62.90;;;-142.21;100.00;112049.66;4994056;28;20375;-79
2022/01/13 04:26:18;;;;;;;21.10;17.52;;;3.90;63.00;;;-142.21;100.00;112049.66;4994175;28;20224;-79
2022/01/13 04:28:47;;;;;;;24.73;18.75;;;3.90;63.20;;;-142.21;100.00;112049.66;4993838;28;20207;-78
2022/01/13 04:31:14;;;;;;;23.75;18.50;;;3.90;63.30;;;-142.21;100.00;112049.66;4993848;28;20211;-80
2022/01/13 04:33:42;;;;;;;23.02;19.38;;;3.90;62.90;;;-142.21;100.00;112049.66;4993010;28;20211;-79
2022/01/13 04:36:10;;;;;;;20.83;17.25;;;3.90;63.80;;;-142.21;100.00;112049.66;4993941;28;20210;-78
2022/01/13 04:38:37;;;;;;;21.27;17.65;;;3.90;63.10;;;-142.21;100.00;112049.66;4993380;28;20541;-80
2022/01/13 04:41:05;;;;;;;22.00;17.48;;;3.90;63.10;;;-142.21;100.00;112049.66;4993401;28;20636;-79
2022/01/13 04:43:33;;;;;;;23.02;18.70;;;3.80;62.80;;;-142.21;100.00;112049.66;4994231;28;20255;-78
2022/01/13 04:46:01;;;;;;;19.08;16.00;;;4.00;63.20;;;-142.21;100.00;112049.66;4993694;28;21023;-79
2022/01/13 04:48:28;;;;;;;22.75;18.80;;;3.90;62.90;;;-142.21;100.00;112049.66;4993300;28;20212;-79
2022/01/13 04:50:56;;;;;;;23.48;18.80;;;3.80;63.00;;;-142.21;100.00;112049.66;4993140;28;20619;-79
2022/01/13 04:53:25;;;;;;;20.30;16.88;;;3.80;63.20;;;-142.21;100.00;112049.66;4993482;28;20300;-78
2022/01/13 04:55:58;;;;;;;20.42;17.83;;;3.90;63.30;;;-142.21;100.00;112049.66;4992968;28;20239;-77
2022/01/13 04:58:25;;;;;;;21.60;17.98;;;3.80;63.10;;;-142.21;100.00;112049.66;4993675;28;20216;-79
2022/01/13 05:00:53;;;;;;;21.83;17.95;;;3.90;62.80;;;-142.21;100.00;112049.66;4992888;28;20819;-79
2022/01/13 05:03:20;;;;;;;21.92;19.27;;;3.80;63.10;;;-142.21;100.00;112049.66;4993252;28;20208;-79
2022/01/13 05:05:47;;;;;;;22.10;18.33;;;3.70;63.20;;;-142.21;100.00;112049.66;4993174;28;20200;-79
2022/01/13 05:08:14;;;;;;;23.13;18.58;;;3.70;63.60;;;-142.21;100.00;112049.66;4991935;28;20227;-78
2022/01/13 05:10:43;;;;;;;23.75;18.63;;;3.70;63.50;;;-142.21;100.00;112049.66;4993320;28;20296;-78
2022/01/13 05:13:11;;;;;;;22.80;18.27;;;3.70;63.50;;;-142.21;100.00;112049.66;4993026;28;20255;-79
2022/01/13 05:15:41;;;;;;;22.60;17.05;;;3.70;63.30;;;-142.21;100.00;112049.66;4993251;28;20207;-77
2022/01/13 05:18:17;;;;;;;22.58;17.20;;;3.70;63.30;;;-142.21;100.00;112049.66;4975932;28;20210;-78
2022/01/13 05:20:50;;;;;;;20.48;17.60;;;3.70;63.50;;;-142.21;100.00;112049.66;4993173;28;20188;-79
2022/01/13 05:23:18;;;;;;;21.88;17.83;;;3.60;63.20;;;-142.21;100.00;112049.66;4993353;28;20196;-80
2022/01/13 05:25:47;;;;;;;25.38;19.23;;;3.70;63.50;;;-142.21;100.00;112049.66;4993297;28;20211;-78
2022/01/13 05:28:15;;;;;;;21.00;18.27;;;3.70;63.70;;;-142.21;100.00;112049.66;4992658;28;20578;-78
2022/01/13 05:30:43;;;;;;;21.83;18.67;;;3.80;63.60;;;-142.21;100.00;112049.66;4992409;28;20290;-77
2022/01/13 05:33:10;;;;;;;22.05;18.65;;;3.70;63.50;;;-142.21;100.00;112049.66;4991272;28;20780;-77
2022/01/13 05:35:37;;;;;;;22.98;18.75;;;3.60;63.90;;;-142.21;100.00;112049.66;4974117;28;20208;-76
2022/01/13 05:38:06;;;;;;;24.40;19.23;;;3.50;63.70;;;-142.21;100.00;112049.66;4972896;28;20200;-77
2022/01/13 05:40:34;;;;;;;26.15;19.05;;;3.60;63.90;;;-142.21;100.00;112049.66;4973536;28;20217;-79
2022/01/13 05:43:03;;;;;;;23.48;17.80;;;3.60;63.90;;;-142.21;100.00;112049.66;4953087;29;20236;-78
2022/01/13 05:45:33;;;;;;;20.05;17.13;;;3.60;64.10;;;-142.21;100.00;112049.66;4954202;28;20209;-76
2022/01/13 05:48:02;;;;;;;22.85;17.98;;;3.40;63.90;;;-142.21;100.00;112049.66;4954450;28;20237;-78
2022/01/13 05:50:32;;;;;;;21.75;17.23;;;3.60;63.80;;;-142.21;100.00;112049.66;4953836;28;20213;-76
2022/01/13 05:52:59;;;;;;;24.17;18.92;;;3.60;63.80;;;-142.21;100.00;112049.66;4954490;28;20273;-77
2022/01/13 05:55:26;;;;;;;22.80;18.30;;;3.60;63.70;;;-142.21;100.00;112049.66;4953958;28;20237;-77
2022/01/13 05:57:54;;;;;;;21.58;17.75;;;3.60;63.60;;;-142.21;100.00;112049.66;4954283;28;20292;-78
2022/01/13 06:00:24;;;;;;;19.50;16.73;;;3.60;63.50;;;-142.21;100.00;112049.66;4959203;28;20236;-79
2022/01/13 06:02:53;;;;;;;23.30;17.95;;;3.60;63.40;;;-142.21;100.00;112049.66;4973702;28;20208;-79
2022/01/13 06:05:21;;;;;;;22.02;18.45;;;3.50;63.30;;;-142.21;100.00;112049.66;4972832;28;20211;-78
2022/01/13 06:07:49;;;;;;;21.50;16.27;;;3.50;63.50;;;-142.21;100.00;112049.66;4973095;28;20649;-77
2022/01/13 06:10:19;;;;;;;22.88;18.95;;;3.50;63.50;;;-142.21;100.00;112049.66;4973522;28;20259;-78
2022/01/13 06:12:48;;;;;;;22.52;18.10;;;3.50;63.30;;;-142.21;100.00;112049.66;4973624;28;20565;-79
2022/01/13 06:15:19;;;;;;;22.50;18.02;;;3.50;63.30;;;-142.21;100.00;112049.66;4973010;28;20214;-79
2022/01/13 06:17:53;;;;;;;20.23;17.33;;;3.50;63.40;;;-142.21;100.00;112049.66;4973820;28;20216;-78
2022/01/13 06:20:22;;;;;;;24.42;18.65;;;3.50;63.50;;;-142.21;100.00;112049.66;4973540;28;20275;-78
2022/01/13 06:22:52;;;;;;;22.25;17.42;;;3.50;63.60;;;-142.21;100.00;112049.66;4973630;28;20208;-78
2022/01/13 06:25:19;;;;;;;21.90;18.05;;;3.50;64.00;;;-142.21;100.00;112049.66;4973561;28;20291;-78
2022/01/13 06:27:47;;;;;;;20.02;17.20;;;3.50;64.20;;;-142.21;100.00;112049.66;4972257;28;20312;-77
2022/01/13 06:30:16;;;;;;;20.85;16.92;;;3.50;63.90;;;-142.21;100.00;112049.66;4973280;28;20300;-78
2022/01/13 06:32:46;;;;;;;22.67;18.60;;;3.30;64.40;;;-142.21;100.00;112049.66;4971516;28;20239;-76
2022/01/13 06:35:15;;;;;;;24.77;19.23;;;3.30;64.20;;;-142.21;100.00;112049.66;4973554;28;20212;-79
2022/01/13 06:37:44;;;;;;;24.15;17.92;;;3.30;64.10;;;-142.21;100.00;112049.66;4972635;28;20291;-78
2022/01/13 06:40:13;;;;;;;21.33;16.58;;;3.30;64.00;;;-142.21;100.00;112049.66;4973212;28;20617;-80
2022/01/13 06:42:40;;;;;;;21.10;17.80;;;3.30;63.60;;;-142.21;100.00;112049.66;4986728;28;20631;-77
2022/01/13 06:45:11;;;;;;;20.85;18.15;;;3.30;63.50;;;-142.21;100.00;112049.66;4989445;28;20208;-77
2022/01/13 06:47:38;;;;;;;21.85;18.13;;;3.30;64.00;;;-142.21;100.00;112049.66;4959597;28;20697;-80
2022/01/13 06:50:07;;;;;;;23.90;18.10;;;3.30;63.80;;;-142.21;100.00;112049.66;4976602;28;20657;-78
2022/01/13 06:52:35;;;;;;;22.60;18.65;;;3.30;64.00;;;-142.21;100.00;112049.66;4976569;28;20773;-79
2022/01/13 06:55:03;;;;;;;23.20;17.73;;;3.40;63.90;;;-142.21;100.00;112049.66;4975845;28;20205;-80
2022/01/13 06:57:31;;;;;;;21.98;18.23;;;3.30;64.00;;;-142.21;100.00;112049.66;4970777;28;20288;-78
2022/01/13 06:59:58;;;;;;;22.85;19.40;;;3.40;63.30;;;-142.21;100.00;112049.66;4956752;29;20205;-80
2022/01/13 07:02:29;;;;;;;26.08;20.25;;;3.40;63.60;;;-142.21;100.00;112049.66;4957381;29;20300;-77
2022/01/13 07:04:56;;;;;;;25.73;20.10;;;3.40;63.90;;;-142.21;100.00;112049.66;4957684;29;20197;-77
2022/01/13 07:07:23;;;;;;;24.48;19.35;;;3.30;63.90;;;-142.21;100.00;112049.66;4957925;29;20237;-78
2022/01/13 07:09:52;;;;;;;23.38;18.98;;;3.40;64.00;;;-142.21;100.00;112049.66;4981112;28;20556;-79
2022/01/13 07:12:19;;;;;;;23.77;19.30;;;3.40;64.10;;;-142.21;100.00;112049.66;4999586;28;20254;-77
2022/01/13 07:14:47;;;;;;;24.88;18.80;;;3.30;63.70;;;-142.21;100.00;112049.66;4987389;28;20703;-78
2022/01/13 07:17:14;;;;;;;24.17;19.50;;;3.30;64.00;;;-142.21;100.00;112049.66;4976357;28;20259;-79
2022/01/13 07:19:41;;;;;;;23.60;19.23;;;3.40;63.40;;;-142.21;100.00;112049.66;4976120;28;20212;-79
2022/01/13 07:22:09;;;;;;;23.23;18.73;;;3.30;63.30;;;-142.21;100.00;112049.66;4975864;28;20204;-79
2022/01/13 07:24:36;;;;;;;26.10;20.65;;;3.50;63.50;;;-142.21;100.00;112049.66;4976280;28;20259;-78
2022/01/13 07:27:05;;;;;;;22.65;18.95;;;3.40;63.30;;;-142.21;100.00;112049.66;4974951;28;20279;-78
2022/01/13 07:29:33;;;;;;;25.25;18.88;;;3.40;63.40;;;-142.21;100.00;112049.66;4975780;28;20851;-78
2022/01/13 07:32:00;;;;;;;23.02;19.25;;;3.40;63.60;;;-142.21;100.00;112049.66;4975190;28;20304;-78
2022/01/13 07:34:27;;;;;;;26.08;20.10;;;3.50;63.30;;;-142.21;100.00;112049.66;4976064;28;20251;-79
2022/01/13 07:36:55;;;;;;;25.17;19.85;;;3.30;63.40;;;-142.21;100.00;112049.66;4975724;28;20205;-79
2022/01/13 07:39:22;;;;;;;30.60;20.70;;;3.30;63.60;;;-142.21;100.00;112049.66;4975263;28;20215;-79
2022/01/13 07:41:49;;;;;;;25.13;19.63;;;3.30;63.70;;;-142.21;100.00;112049.66;4981931;28;20642;-78
2022/01/13 07:44:18;;;;;;;25.50;20.02;;;3.40;64.00;;;-142.21;100.00;112049.66;4975398;28;20291;-80
2022/01/13 07:46:47;;;;;;;20.60;17.80;;;3.40;63.90;;;-142.21;100.00;112049.66;4975550;28;20193;-78
2022/01/13 07:49:14;;;;;;;23.42;17.77;;;3.80;63.60;;;-142.21;100.00;112049.66;4984943;28;20634;-78
2022/01/13 07:51:42;;;;;;;22.33;18.40;;;4.90;61.20;;;-142.21;100.00;112049.66;4999346;28;20228;-76
2022/01/13 07:54:09;;;;;;;20.73;17.73;;;5.00;59.30;;;-142.21;100.00;112049.66;4996414;28;20665;-76
2022/01/13 07:56:36;;;;;;;21.83;17.55;;;5.10;59.30;;;-142.21;100.00;112049.66;4995180;28;20290;-78
2022/01/13 07:59:03;;;;;;;22.48;17.35;;;5.10;59.10;;;-142.21;100.00;112049.66;4994967;28;20258;-79
2022/01/13 08:01:32;;;;;;;23.27;18.58;;;5.00;59.60;;;-142.21;100.00;112049.66;4993433;28;20263;-79
2022/01/13 08:03:59;;;;;;;22.38;18.35;;;4.70;59.50;;;-142.21;100.00;112049.66;4993237;28;20291;-79
2022/01/13 08:06:27;;;;;;;23.17;19.50;;;4.70;59.50;;;-142.21;100.00;112049.66;4993406;28;20208;-78
2022/01/13 08:08:54;;;;;;;21.77;18.40;;;4.80;59.80;;;-142.21;100.00;112049.66;4992256;28;20243;-79
2022/01/13 08:11:23;;;;;;;22.25;18.48;;;4.90;59.80;;;-142.21;100.00;112049.66;4985485;28;20240;-80
2022/01/13 08:13:50;;;;;;;23.38;18.38;;;5.00;59.60;;;-142.21;100.00;112049.66;4993558;28;20316;-78
2022/01/13 08:16:19;;;;;;;24.92;18.02;;;5.40;59.20;;;-142.21;100.00;112049.66;5000488;28;20268;-77
2022/01/13 08:21:33;;;;;;;23.48;19.17;;;5.20;59.20;;;-142.21;100.00;112049.66;5012713;28;20211;-78
2022/01/13 08:24:00;;;;;;;24.73;19.45;;;5.00;59.60;;;-142.21;100.00;112049.66;5013777;28;20275;-74
2022/01/13 08:26:29;;;;;;;25.58;19.67;;;4.90;60.10;;;-142.21;100.00;112049.66;5015027;28;20215;-78
2022/01/13 08:28:56;;;;;;;24.50;20.50;;;4.90;60.80;;;-142.21;100.00;112049.66;5007963;28;20259;-77
2022/01/13 08:31:23;;;;;;;23.48;19.25;;;5.00;61.10;;;-142.21;100.00;112049.66;5010570;28;20231;-77
2022/01/13 08:33:52;;;;;;;23.05;19.05;;;5.80;59.80;;;-142.21;100.00;112049.66;5015337;28;20207;-77
2022/01/13 08:36:20;;;;;;;22.58;18.88;;;5.90;59.20;;;-142.21;99.33;112049.66;5014471;28;20207;-80
2022/01/13 08:38:49;;;;;;;20.80;18.13;;;6.10;59.00;;;-142.21;98.16;112049.66;5012578;28;20218;-77
2022/01/13 08:41:17;;;;;;;22.25;18.23;;;6.40;58.70;;;-142.21;98.66;112049.66;5003444;28;20231;-81
2022/01/13 08:43:45;;;;;;;21.90;17.80;;;6.50;58.40;;;-142.21;97.10;112049.66;4994844;28;20211;-80
2022/01/13 08:46:12;;;;;;;19.80;17.40;;;7.50;57.60;;;-142.21;96.39;112049.66;4994324;28;20266;-78
2022/01/13 08:48:39;;;;;;;21.23;17.90;;;8.60;55.70;;;-142.21;96.44;112049.66;4993509;28;20491;-79
2022/01/13 08:51:08;;;;;;;18.90;16.57;;;9.40;53.50;;;-142.21;96.90;112049.66;4993625;28;20455;-79
2022/01/13 08:53:38;;;;;;;22.43;18.33;;;9.10;53.00;;;-142.21;96.84;112049.66;4992635;28;20546;-80
2022/01/13 08:56:05;;;;;;;21.13;18.93;;;8.80;53.40;;;-142.21;95.48;112049.66;4993310;28;20485;-79
2022/01/13 08:58:33;;;;;;;23.40;18.63;;;8.80;54.40;;;-142.21;94.85;112049.66;4993015;28;20479;-79
2022/01/13 09:01:01;;;;;;;21.43;18.20;;;9.40;53.80;;;-142.21;91.97;112049.66;4993150;28;20479;-79
2022/01/13 09:03:28;;;;;;;22.00;19.30;;;9.10;53.60;;;-142.21;88.30;112049.66;4975974;28;20490;-80
2022/01/13 09:05:56;;;;;;;20.70;18.50;;;8.70;54.10;;;-142.21;88.50;112049.66;4992567;28;20447;-80
2022/01/13 09:08:24;;;;;;;22.90;18.20;;;8.70;54.80;;;-142.21;90.89;112049.66;4992795;28;20540;-79
2022/01/13 09:10:52;;;;;;;23.30;18.83;;;9.60;53.90;;;-142.21;89.66;112049.66;4973103;28;20944;-79
2022/01/13 09:13:19;;;;;;;20.47;18.33;;;9.50;53.10;;;-142.21;88.75;112049.66;4974142;28;20900;-79
2022/01/13 09:15:51;;;;;;;22.87;19.90;;;9.40;53.00;;;-142.21;90.55;112049.66;4966360;28;20815;-79
2022/01/13 09:18:31;;;;;;;21.37;19.10;;;9.30;53.50;;;-142.21;89.37;112049.66;4993580;28;20443;-79
2022/01/13 09:20:59;;;;;;;24.33;19.87;;;9.70;53.30;;;-142.21;89.14;112049.66;4948441;28;20497;-80
2022/01/13 09:23:28;;;;;;;24.47;20.07;;;9.40;53.00;;;-142.21;89.43;112049.66;4992997;28;20494;-79
2022/01/13 09:25:58;;;;;;;22.80;19.50;;;9.20;53.30;;;-142.21;90.71;112049.66;4992261;28;20482;-79
2022/01/13 09:28:25;;;;;;;20.67;18.50;;;9.10;53.60;;;-142.21;89.51;112049.66;4986131;28;20987;-80
2022/01/13 09:30:53;;;;;;;20.73;18.60;;;9.40;53.90;;;-142.21;86.83;112049.66;4973191;28;20584;-79
2022/01/13 09:33:21;;;;;;;20.53;18.33;;;9.90;53.40;;;-142.21;84.59;112049.66;4957608;28;20452;-79
2022/01/13 09:35:50;;;;;;;21.30;19.10;;;9.90;52.50;;;-142.21;84.02;112049.66;4979044;28;20509;-80
2022/01/13 09:38:17;;;;;;;20.30;18.10;;;9.80;52.80;;;-142.21;85.61;112049.66;4979474;28;20443;-80
2022/01/13 09:40:47;;;;;;;21.40;19.20;;;10.00;52.50;;;-142.21;78.74;112049.66;4992931;28;20542;-80
2022/01/13 09:43:15;;;;;;;20.30;18.13;;;10.30;52.00;;;-142.21;76.28;112049.66;4984699;28;20534;-79
2022/01/13 09:45:42;;;;;;;20.80;18.67;;;10.40;51.00;;;-142.21;72.94;112049.66;4992265;28;20951;-79
2022/01/13 09:48:10;;;;;;;19.87;17.77;;;10.90;51.40;;;-142.21;70.61;112049.66;4976350;28;20486;-80
2022/01/13 09:50:40;;;;;;;19.10;17.10;;;11.40;50.50;;;-142.21;66.59;112049.66;4992973;28;20483;-77
2022/01/13 09:53:08;;;;;;;18.73;16.73;;;12.00;49.70;;;-142.21;59.70;112049.66;4993146;28;20526;-78
2022/01/13 09:55:36;;;;;;;19.63;17.67;;;12.60;49.20;;;-142.21;56.66;112049.66;4992898;28;20461;-79
2022/01/13 09:58:10;;;;;;;19.27;17.27;;;13.20;47.60;;;-142.21;56.49;112049.66;4992653;28;20458;-79
2022/01/13 10:00:39;;;;;;;18.73;16.67;;;13.70;46.90;;;-142.21;53.38;112049.66;4992797;28;20475;-79
2022/01/13 10:03:12;;;;;;;18.80;16.90;;;14.10;46.30;;;-142.21;54.16;112049.66;4992658;28;20537;-79